createdAt,value
2017-12-01T00:01:12.471Z,76.50
2017-12-01T00:03:40.525Z,76.80
2017-12-01T00:06:09.432Z,76.90
2017-12-01T00:08:37.514Z,76.90
2017-12-01T00:11:05.582Z,77.00
2017-12-01T00:13:33.653Z,77.10
2017-12-01T00:16:02.047Z,77.20
2017-12-01T00:18:30.895Z,77.80
2017-12-01T00:20:58.971Z,77.90
2017-12-01T00:23:27.039Z,77.90
2017-12-01T00:25:55.110Z,78.40
2017-12-01T00:28:23.297Z,80.20
2017-12-01T00:30:51.363Z,81.90
2017-12-01T00:33:19.439Z,82.40
2017-12-01T00:35:47.519Z,82.50
2017-12-01T00:38:15.592Z,82.00
2017-12-01T00:40:44.161Z,80.20
2017-12-01T00:43:12.397Z,79.80
2017-12-01T00:45:40.677Z,79.20
2017-12-01T00:48:08.731Z,78.80
2017-12-01T00:50:36.807Z,78.30
2017-12-01T00:53:05.732Z,78.80
2017-12-01T00:55:33.832Z,78.70
2017-12-01T00:58:01.904Z,78.30
2017-12-01T01:00:29.988Z,77.50
2017-12-01T01:02:58.852Z,77.10
2017-12-01T01:05:26.932Z,77.30
2017-12-01T01:07:55.824Z,77.00
2017-12-01T01:10:23.897Z,77.70
2017-12-01T01:12:53.618Z,76.10
2017-12-01T01:15:22.467Z,76.90
2017-12-01T01:17:51.944Z,76.90
2017-12-01T01:20:20.011Z,78.10
2017-12-01T01:22:48.075Z,78.90
2017-12-01T01:25:16.149Z,79.70
2017-12-01T01:27:44.227Z,80.80
2017-12-01T01:30:12.300Z,82.00
2017-12-01T01:32:40.379Z,81.20
2017-12-01T01:35:08.477Z,81.20
2017-12-01T01:37:36.551Z,79.90
2017-12-01T01:40:04.714Z,79.90
2017-12-01T01:42:32.784Z,79.50
2017-12-01T01:45:01.022Z,79.50
2017-12-01T01:47:29.110Z,79.10
2017-12-01T01:49:57.171Z,78.50
2017-12-01T01:52:26.176Z,77.90
2017-12-01T01:54:54.499Z,77.60
2017-12-01T01:57:23.363Z,77.60
2017-12-01T01:59:51.432Z,77.60
2017-12-01T02:02:19.532Z,77.30
2017-12-01T02:04:48.430Z,80.30
2017-12-01T02:07:16.566Z,80.40
2017-12-01T02:09:44.641Z,82.50
2017-12-01T02:12:12.728Z,82.40
2017-12-01T02:14:41.596Z,85.00
2017-12-01T02:17:09.675Z,85.00
2017-12-01T02:19:37.771Z,84.40
2017-12-01T02:22:07.586Z,82.60
2017-12-01T02:24:35.661Z,82.60
2017-12-01T02:27:03.749Z,82.70
2017-12-01T02:29:31.876Z,81.80
2017-12-01T02:32:00.445Z,80.90
2017-12-01T02:34:28.515Z,80.10
2017-12-01T02:36:56.591Z,79.70
2017-12-01T02:39:24.786Z,81.50
2017-12-01T02:41:53.689Z,82.60
2017-12-01T02:44:22.588Z,81.40
2017-12-01T02:46:50.651Z,81.40
2017-12-01T02:49:18.725Z,81.40
2017-12-01T02:51:46.812Z,81.50
2017-12-01T02:54:14.884Z,81.80
2017-12-01T02:56:42.960Z,82.60
2017-12-01T02:59:12.253Z,82.80
2017-12-01T03:01:40.380Z,82.90
2017-12-01T03:04:08.450Z,81.20
2017-12-01T03:06:36.877Z,81.60
2017-12-01T03:09:05.024Z,81.70
2017-12-01T03:11:33.946Z,80.80
2017-12-01T03:14:02.012Z,80.00
2017-12-01T03:16:30.129Z,80.40
2017-12-01T03:18:58.970Z,80.90
2017-12-01T03:21:27.043Z,80.90
2017-12-01T03:23:55.098Z,81.20
2017-12-01T03:26:23.188Z,80.60
2017-12-01T03:28:51.258Z,80.00
2017-12-01T03:31:19.460Z,80.40
2017-12-01T03:33:47.565Z,80.00
2017-12-01T03:36:16.405Z,79.30
2017-12-01T03:38:45.358Z,79.30
2017-12-01T03:41:13.435Z,79.80
2017-12-01T03:43:41.547Z,80.50
2017-12-01T03:46:09.606Z,80.30
2017-12-01T03:48:37.768Z,81.10
2017-12-01T03:51:05.931Z,81.30
2017-12-01T03:53:34.085Z,80.90
2017-12-01T03:56:02.112Z,80.80
2017-12-01T03:58:30.190Z,80.80
2017-12-01T04:01:00.123Z,80.60
2017-12-01T04:03:28.992Z,81.20
2017-12-01T04:05:57.120Z,81.20
2017-12-01T04:08:25.206Z,80.90
2017-12-01T04:10:53.368Z,80.10
2017-12-01T04:13:21.498Z,80.20
2017-12-01T04:15:49.632Z,80.10
2017-12-01T04:18:17.699Z,79.60
2017-12-01T04:20:45.774Z,79.10
2017-12-01T04:23:13.857Z,79.00
2017-12-01T04:25:41.935Z,79.10
2017-12-01T04:28:10.812Z,79.50
2017-12-01T04:30:38.886Z,79.30
2017-12-01T04:33:07.846Z,79.00
2017-12-01T04:35:36.008Z,79.10
2017-12-01T04:38:04.088Z,79.10
2017-12-01T04:40:32.179Z,79.20
2017-12-01T04:43:00.242Z,79.70
2017-12-01T04:45:28.315Z,79.90
2017-12-01T04:47:56.385Z,79.80
2017-12-01T04:50:24.446Z,81.50
2017-12-01T04:52:52.580Z,81.60
2017-12-01T04:55:21.441Z,81.70
2017-12-01T04:57:49.519Z,81.70
2017-12-01T05:00:17.582Z,81.00
2017-12-01T05:02:45.659Z,80.40
2017-12-01T05:05:14.241Z,80.30
2017-12-01T05:07:42.315Z,80.40
2017-12-01T05:10:10.387Z,81.20
2017-12-01T05:12:38.450Z,80.10
2017-12-01T05:15:06.519Z,79.30
2017-12-01T05:17:34.591Z,79.50
2017-12-01T05:20:02.654Z,79.30
2017-12-01T05:22:30.717Z,79.00
2017-12-01T05:24:59.586Z,79.10
2017-12-01T05:27:27.716Z,79.40
2017-12-01T05:29:55.748Z,79.20
2017-12-01T05:32:23.819Z,79.70
2017-12-01T05:34:51.917Z,79.30
2017-12-01T05:37:20.783Z,79.70
2017-12-01T05:39:48.864Z,79.60
2017-12-01T05:42:16.974Z,80.00
2017-12-01T05:44:45.047Z,80.20
2017-12-01T05:47:13.121Z,80.40
2017-12-01T05:49:41.210Z,80.30
2017-12-01T05:52:09.275Z,81.10
2017-12-01T05:54:37.351Z,81.20
2017-12-01T05:57:05.421Z,81.10
2017-12-01T05:59:33.506Z,81.90
2017-12-01T06:02:01.579Z,81.60
2017-12-01T06:04:29.660Z,82.10
2017-12-01T06:06:57.782Z,83.00
2017-12-01T06:09:25.846Z,83.00
2017-12-01T06:11:53.907Z,83.80
2017-12-01T06:14:21.992Z,84.30
2017-12-01T06:16:50.118Z,85.60
2017-12-01T06:19:18.188Z,85.80
2017-12-01T06:21:46.260Z,85.60
2017-12-01T06:24:14.697Z,86.40
2017-12-01T06:26:42.808Z,86.50
2017-12-01T06:29:10.865Z,86.50
2017-12-01T06:31:38.952Z,86.80
2017-12-01T06:34:07.025Z,87.00
2017-12-01T06:36:35.286Z,87.70
2017-12-01T06:39:03.475Z,88.70
2017-12-01T06:41:31.576Z,88.90
2017-12-01T06:43:59.693Z,89.50
2017-12-01T06:46:28.392Z,88.80
2017-12-01T06:48:56.462Z,89.50
2017-12-01T06:51:24.535Z,89.60
2017-12-01T06:53:52.614Z,89.80
2017-12-01T06:56:20.687Z,90.20
2017-12-01T06:58:48.742Z,90.40
2017-12-01T07:01:16.828Z,90.50
2017-12-01T07:03:44.898Z,90.30
2017-12-01T07:06:12.971Z,90.10
2017-12-01T07:08:41.143Z,90.10
2017-12-01T07:11:09.201Z,90.00
2017-12-01T07:13:37.300Z,89.50
2017-12-01T07:16:06.141Z,89.80
2017-12-01T07:18:34.220Z,89.90
2017-12-01T07:21:02.412Z,89.90
2017-12-01T07:23:30.507Z,89.30
2017-12-01T07:28:59.171Z,90.30
2017-12-01T07:31:27.244Z,90.30
2017-12-01T07:33:55.312Z,90.30
2017-12-01T07:36:23.399Z,90.20
2017-12-01T07:38:51.490Z,90.30
2017-12-01T07:41:20.346Z,88.50
2017-12-01T07:43:48.431Z,88.40
2017-12-01T07:46:16.503Z,89.60
2017-12-01T07:48:44.571Z,89.70
2017-12-01T07:51:12.659Z,89.10
2017-12-01T07:53:41.496Z,88.10
2017-12-01T07:56:09.579Z,88.10
2017-12-01T07:58:37.653Z,87.30
2017-12-01T08:01:05.727Z,87.90
2017-12-01T08:03:33.800Z,86.80
2017-12-01T08:06:02.121Z,86.10
2017-12-01T08:08:30.223Z,84.40
2017-12-01T08:10:58.300Z,83.30
2017-12-01T08:13:26.383Z,83.20
2017-12-01T08:16:12.627Z,83.20
2017-12-01T08:19:04.340Z,83.20
2017-12-01T08:21:51.245Z,82.80
2017-12-01T08:24:37.980Z,82.60
2017-12-01T08:27:06.827Z,82.60
2017-12-01T08:29:34.911Z,82.10
2017-12-01T08:32:03.759Z,80.90
2017-12-01T08:34:31.831Z,80.90
2017-12-01T08:36:59.926Z,80.90
2017-12-01T08:39:28.003Z,79.60
2017-12-01T08:41:56.069Z,78.80
2017-12-01T08:44:24.240Z,78.60
2017-12-01T08:46:52.317Z,80.00
2017-12-01T08:49:20.454Z,80.00
2017-12-01T08:51:48.531Z,80.00
2017-12-01T08:54:17.022Z,80.10
2017-12-01T08:56:45.096Z,80.00
2017-12-01T08:59:13.178Z,80.10
2017-12-01T09:01:41.238Z,80.40
2017-12-01T09:04:09.340Z,81.00
2017-12-01T09:06:38.185Z,83.80
2017-12-01T09:09:06.267Z,83.80
2017-12-01T09:11:34.327Z,83.90
2017-12-01T09:14:02.561Z,83.30
2017-12-01T09:16:32.298Z,81.80
2017-12-01T09:19:00.384Z,81.80
2017-12-01T09:21:28.467Z,83.30
2017-12-01T09:23:56.547Z,83.30
2017-12-01T09:26:24.734Z,83.30
2017-12-01T09:28:52.713Z,83.40
2017-12-01T09:31:21.559Z,83.40
2017-12-01T09:33:49.635Z,83.20
2017-12-01T09:36:17.708Z,83.50
2017-12-01T09:38:45.775Z,83.40
2017-12-01T09:41:13.848Z,83.10
2017-12-01T09:43:41.916Z,82.10
2017-12-01T09:46:09.987Z,81.70
2017-12-01T09:48:38.171Z,81.20
2017-12-01T09:51:06.243Z,80.00
2017-12-01T09:53:34.415Z,79.90
2017-12-01T09:56:02.487Z,79.70
2017-12-01T09:58:30.572Z,80.80
2017-12-01T10:00:59.407Z,82.00
2017-12-01T10:03:27.476Z,82.00
2017-12-01T10:05:55.540Z,82.20
2017-12-01T10:08:23.632Z,81.10
2017-12-01T10:10:51.704Z,81.20
2017-12-01T10:13:20.223Z,80.00
2017-12-01T10:15:48.459Z,80.60
2017-12-01T10:18:16.554Z,80.70
2017-12-01T10:20:44.618Z,79.80
2017-12-01T10:23:12.785Z,78.90
2017-12-01T10:25:41.636Z,76.20
2017-12-01T10:28:09.788Z,76.10
2017-12-01T10:30:38.635Z,75.00
2017-12-01T10:33:06.753Z,75.00
2017-12-01T10:35:34.834Z,74.70
2017-12-01T10:38:02.919Z,74.10
2017-12-01T10:40:31.026Z,75.30
2017-12-01T10:42:59.097Z,72.80
2017-12-01T10:45:27.283Z,70.60
2017-12-01T10:47:56.131Z,68.50
2017-12-01T10:50:24.248Z,68.00
2017-12-01T10:52:53.099Z,64.10
2017-12-01T10:55:21.196Z,64.10
2017-12-01T10:57:50.044Z,67.20
2017-12-01T11:00:18.120Z,65.90
2017-12-01T11:02:46.224Z,65.60
2017-12-01T11:05:14.502Z,66.50
2017-12-01T11:07:43.351Z,66.10
2017-12-01T11:10:12.009Z,66.10
2017-12-01T11:12:40.184Z,65.80
2017-12-01T11:15:08.254Z,64.50
2017-12-01T11:17:36.342Z,64.80
2017-12-01T11:20:09.287Z,67.70
2017-12-01T11:22:38.160Z,68.70
2017-12-01T11:25:06.243Z,69.90
2017-12-01T11:27:35.091Z,69.50
2017-12-01T11:30:03.180Z,69.50
2017-12-01T11:32:31.371Z,67.90
2017-12-01T11:35:00.211Z,68.70
2017-12-01T11:37:28.282Z,68.30
2017-12-01T11:39:56.343Z,66.10
2017-12-01T11:42:24.416Z,66.40
2017-12-01T11:44:52.522Z,64.50
2017-12-01T11:47:20.615Z,64.20
2017-12-01T11:49:49.459Z,63.70
2017-12-01T11:52:17.686Z,63.60
2017-12-01T11:54:47.318Z,63.40
2017-12-01T11:57:17.478Z,63.40
2017-12-01T11:59:45.579Z,65.00
2017-12-01T12:02:13.697Z,64.70
2017-12-01T12:04:41.838Z,66.10
2017-12-01T12:07:10.096Z,65.70
2017-12-01T12:09:38.948Z,66.20
2017-12-01T12:12:07.038Z,66.20
2017-12-01T12:14:35.127Z,66.10
2017-12-01T12:17:03.972Z,67.30
2017-12-01T12:19:32.043Z,66.30
2017-12-01T12:22:00.120Z,66.40
2017-12-01T12:24:28.188Z,66.40
2017-12-01T12:26:56.791Z,65.60
2017-12-01T12:29:24.862Z,64.50
2017-12-01T12:31:52.939Z,64.80
2017-12-01T12:34:21.162Z,66.00
2017-12-01T12:36:49.232Z,67.40
2017-12-01T12:39:17.318Z,66.60
2017-12-01T12:41:45.390Z,66.60
2017-12-01T12:44:13.498Z,66.60
2017-12-01T12:46:41.567Z,67.00
2017-12-01T12:49:09.632Z,67.30
2017-12-01T12:51:37.708Z,68.00
2017-12-01T12:54:05.783Z,69.20
2017-12-01T12:56:33.958Z,69.10
2017-12-01T12:59:02.032Z,69.20
2017-12-01T13:01:30.897Z,68.70
2017-12-01T13:03:58.971Z,68.60
2017-12-01T13:06:27.050Z,68.10
2017-12-01T13:08:55.128Z,68.10
2017-12-01T13:11:23.234Z,67.80
2017-12-01T13:13:51.363Z,69.00
2017-12-01T13:16:19.429Z,68.90
2017-12-01T13:18:47.500Z,69.80
2017-12-01T13:21:15.582Z,69.20
2017-12-01T13:23:43.656Z,70.70
2017-12-01T13:26:11.727Z,71.50
2017-12-01T13:28:39.795Z,72.10
2017-12-01T13:31:08.652Z,71.30
2017-12-01T13:33:36.722Z,70.90
2017-12-01T13:36:04.795Z,71.80
2017-12-01T13:38:32.867Z,73.60
2017-12-01T13:41:00.949Z,72.40
2017-12-01T13:43:29.028Z,73.40
2017-12-01T13:45:57.102Z,73.50
2017-12-01T13:48:25.178Z,73.40
2017-12-01T13:50:54.029Z,76.10
2017-12-01T13:53:22.152Z,75.10
2017-12-01T13:55:50.999Z,75.10
2017-12-01T13:58:19.084Z,75.10
2017-12-01T14:00:47.256Z,75.10
2017-12-01T14:03:15.346Z,75.70
2017-12-01T14:05:44.193Z,77.10
2017-12-01T14:08:12.262Z,77.10
2017-12-01T14:10:40.778Z,77.30
2017-12-01T14:13:08.851Z,77.70
2017-12-01T14:15:36.923Z,79.00
2017-12-01T14:18:05.100Z,80.00
2017-12-01T14:20:33.184Z,79.90
2017-12-01T14:23:02.035Z,80.60
2017-12-01T14:25:30.119Z,80.60
2017-12-01T14:27:58.188Z,80.60
2017-12-01T14:30:26.309Z,80.40
2017-12-01T14:32:55.143Z,80.70
2017-12-01T14:35:23.319Z,80.70
2017-12-01T14:37:51.482Z,80.80
2017-12-01T14:40:19.551Z,80.70
2017-12-01T14:42:47.624Z,81.20
2017-12-01T14:45:27.388Z,82.00
2017-12-01T14:47:55.466Z,82.40
2017-12-01T14:50:23.532Z,82.90
2017-12-01T14:52:51.599Z,84.00
2017-12-01T14:55:19.676Z,83.40
2017-12-01T14:57:48.608Z,84.00
2017-12-01T15:00:16.697Z,83.90
2017-12-01T15:02:44.778Z,83.90
2017-12-01T15:05:12.962Z,82.60
2017-12-01T15:07:41.066Z,83.20
2017-12-01T15:10:09.119Z,84.00
2017-12-01T15:12:37.242Z,83.90
2017-12-01T15:15:05.331Z,84.80
2017-12-01T15:17:33.421Z,83.80
2017-12-01T15:20:01.488Z,83.80
2017-12-01T15:22:29.563Z,83.80
2017-12-01T15:24:57.627Z,83.80
2017-12-01T15:27:25.712Z,84.40
2017-12-01T15:29:53.784Z,84.80
2017-12-01T15:32:21.837Z,85.90
2017-12-01T15:34:49.931Z,85.90
2017-12-01T15:37:19.122Z,86.20
2017-12-01T15:39:47.180Z,86.20
2017-12-01T15:42:15.275Z,86.00
2017-12-01T15:44:44.147Z,83.90
2017-12-01T15:47:12.307Z,83.90
2017-12-01T15:49:40.506Z,85.10
2017-12-01T15:52:09.379Z,85.10
2017-12-01T15:54:37.455Z,85.10
2017-12-01T15:57:05.522Z,85.50
2017-12-01T15:59:33.606Z,84.90
2017-12-01T16:02:01.659Z,84.80
2017-12-01T16:04:29.758Z,84.20
2017-12-01T16:06:58.628Z,84.70
2017-12-01T16:09:26.727Z,84.70
2017-12-01T16:11:54.801Z,85.30
2017-12-01T16:14:22.972Z,84.60
2017-12-01T16:16:51.815Z,85.30
2017-12-01T16:19:19.887Z,85.30
2017-12-01T16:21:47.956Z,85.50
2017-12-01T16:24:16.029Z,85.40
2017-12-01T16:26:44.127Z,85.40
2017-12-01T16:29:12.991Z,86.10
2017-12-01T16:31:41.171Z,86.10
2017-12-01T16:34:09.242Z,86.10
2017-12-01T16:36:37.312Z,86.10
2017-12-01T16:39:05.479Z,86.10
2017-12-01T16:41:33.567Z,86.20
2017-12-01T16:44:02.479Z,86.20
2017-12-01T16:46:30.546Z,86.20
2017-12-01T16:48:59.392Z,86.60
2017-12-01T16:51:27.473Z,86.60
2017-12-01T16:53:55.647Z,87.00
2017-12-01T16:56:23.859Z,86.40
2017-12-01T16:58:51.928Z,86.60
2017-12-01T17:01:20.006Z,86.70
2017-12-01T17:03:48.075Z,87.60
2017-12-01T17:06:16.168Z,88.60
2017-12-01T17:08:44.264Z,88.40
2017-12-01T17:11:12.351Z,88.30
2017-12-01T17:13:40.426Z,88.70
2017-12-01T17:16:09.368Z,88.50
2017-12-01T17:18:37.448Z,88.60
2017-12-01T17:21:05.519Z,88.80
2017-12-01T17:23:33.603Z,89.50
2017-12-01T17:26:02.325Z,89.30
2017-12-01T17:28:31.201Z,89.30
2017-12-01T17:30:59.283Z,89.30
2017-12-01T17:33:28.135Z,89.50
2017-12-01T17:35:56.203Z,89.50
2017-12-01T17:38:24.380Z,89.10
2017-12-01T17:40:52.449Z,88.60
2017-12-01T17:43:20.523Z,90.10
2017-12-01T17:45:48.615Z,90.40
2017-12-01T17:48:16.775Z,90.30
2017-12-01T17:50:44.860Z,90.50
2017-12-01T17:53:12.918Z,90.30
2017-12-01T17:55:41.008Z,90.70
2017-12-01T17:58:09.836Z,90.70
2017-12-01T18:00:37.939Z,90.70
2017-12-01T18:03:05.972Z,90.60
2017-12-01T18:05:34.062Z,90.40
2017-12-01T18:08:02.163Z,90.10
2017-12-01T18:10:30.334Z,90.30
2017-12-01T18:12:58.528Z,90.20
2017-12-01T18:15:26.619Z,90.10
2017-12-01T18:17:55.048Z,89.50
2017-12-01T18:20:23.122Z,89.50
2017-12-01T18:22:51.191Z,88.90
2017-12-01T18:32:17.570Z,88.50
2017-12-01T18:34:45.638Z,89.00
2017-12-01T18:37:13.726Z,89.60
2017-12-01T18:39:41.797Z,89.30
2017-12-01T18:42:10.644Z,89.20
2017-12-01T18:44:38.707Z,88.80
2017-12-01T18:47:06.784Z,88.90
2017-12-01T18:49:34.849Z,88.70
2017-12-01T18:52:03.595Z,89.30
2017-12-01T18:54:32.430Z,88.50
2017-12-01T18:57:00.499Z,88.50
2017-12-01T18:59:28.582Z,88.00
2017-12-01T19:01:56.668Z,88.10
2017-12-01T19:04:24.736Z,88.40
2017-12-01T19:06:52.816Z,88.20
2017-12-01T19:09:20.893Z,88.30
2017-12-01T19:11:49.058Z,87.70
2017-12-01T19:14:17.147Z,87.60
2017-12-01T19:16:46.077Z,88.40
2017-12-01T19:19:14.195Z,88.50
2017-12-01T19:21:42.275Z,88.60
2017-12-01T19:24:11.120Z,88.60
2017-12-01T19:26:39.192Z,88.50
2017-12-01T19:29:07.312Z,88.70
2017-12-01T19:31:36.164Z,89.20
2017-12-01T19:34:04.227Z,89.10
2017-12-01T19:36:32.308Z,89.10
2017-12-01T19:39:00.393Z,88.80
2017-12-01T19:41:28.523Z,88.20
2017-12-01T19:43:56.594Z,88.60
2017-12-01T19:46:24.751Z,88.70
2017-12-01T19:48:52.838Z,89.00
2017-12-01T19:51:20.908Z,89.30
2017-12-01T19:53:48.979Z,89.90
2017-12-01T19:56:17.060Z,89.90
2017-12-01T19:58:45.139Z,89.90
2017-12-01T20:01:13.243Z,90.10
2017-12-01T20:03:42.084Z,90.30
2017-12-01T20:06:10.174Z,90.30
2017-12-01T20:08:38.242Z,90.10
2017-12-01T20:11:06.449Z,90.10
2017-12-01T20:13:35.294Z,90.20
2017-12-01T20:16:03.393Z,90.20
2017-12-01T20:18:31.461Z,90.50
2017-12-01T20:20:59.530Z,90.40
2017-12-01T20:23:27.620Z,90.30
2017-12-01T20:25:56.520Z,90.70
2017-12-01T20:28:25.379Z,90.40
2017-12-01T20:30:53.442Z,90.40
2017-12-01T20:33:21.515Z,90.20
2017-12-01T20:35:49.592Z,90.50
2017-12-01T20:38:17.681Z,90.40
2017-12-01T20:40:45.757Z,90.30
2017-12-01T20:43:14.620Z,90.60
2017-12-01T20:45:42.688Z,90.60
2017-12-01T20:48:10.756Z,90.60
2017-12-01T20:50:38.834Z,90.40
2017-12-01T20:53:07.086Z,90.60
2017-12-01T20:55:35.159Z,90.60
2017-12-01T20:58:03.284Z,90.80
2017-12-01T21:00:31.335Z,91.00
2017-12-01T21:02:59.422Z,91.20
2017-12-01T21:05:28.266Z,91.10
2017-12-01T21:07:56.399Z,91.10
2017-12-01T21:10:24.588Z,91.00
2017-12-01T21:12:52.647Z,90.70
2017-12-01T21:15:20.725Z,90.80
2017-12-01T21:17:48.839Z,90.60
2017-12-01T21:20:16.927Z,90.60
2017-12-01T21:22:45.770Z,90.20
2017-12-01T21:25:13.839Z,90.10
2017-12-01T21:27:42.121Z,90.10
2017-12-01T21:30:10.745Z,90.20
2017-12-01T21:32:40.203Z,90.10
2017-12-01T21:35:08.337Z,90.10
2017-12-01T21:37:36.450Z,90.30
2017-12-01T21:40:04.518Z,90.30
2017-12-01T21:42:32.600Z,90.30
2017-12-01T21:45:00.671Z,90.80
2017-12-01T21:47:28.743Z,90.70
2017-12-01T21:49:56.820Z,91.00
2017-12-01T21:52:24.903Z,91.10
2017-12-01T21:54:53.063Z,90.70
2017-12-01T21:57:21.141Z,90.90
2017-12-01T21:59:49.219Z,90.70
2017-12-01T22:02:17.381Z,90.50
2017-12-01T22:04:45.448Z,90.40
2017-12-01T22:07:13.514Z,90.50
2017-12-01T22:09:41.591Z,90.20
2017-12-01T22:12:09.654Z,90.50
2017-12-01T22:14:37.731Z,90.30
2017-12-01T22:17:05.849Z,89.90
2017-12-01T22:19:33.999Z,89.80
2017-12-01T22:22:02.852Z,90.00
2017-12-01T22:24:31.012Z,90.00
2017-12-01T22:26:59.078Z,90.00
2017-12-01T22:29:27.223Z,90.10
2017-12-01T22:31:56.060Z,90.10
2017-12-01T22:34:24.139Z,90.10
2017-12-01T22:36:52.315Z,90.00
2017-12-01T22:39:20.392Z,90.00
2017-12-01T22:41:48.459Z,89.80
2017-12-01T22:44:16.633Z,89.70
2017-12-01T22:46:44.701Z,89.30
2017-12-01T22:49:12.773Z,90.00
2017-12-01T22:51:40.839Z,90.00
2017-12-01T22:54:08.910Z,89.20
2017-12-01T22:56:36.973Z,88.40
2017-12-01T22:59:05.046Z,89.20
2017-12-01T23:01:33.111Z,89.50
2017-12-01T23:04:01.196Z,89.20
2017-12-01T23:06:29.268Z,89.00
2017-12-01T23:08:57.430Z,89.70
2017-12-01T23:11:25.515Z,90.00
2017-12-01T23:13:53.595Z,90.00
2017-12-01T23:16:21.726Z,89.20
2017-12-01T23:18:49.795Z,89.90
2017-12-01T23:21:17.866Z,89.00
2017-12-01T23:23:46.942Z,89.40
2017-12-01T23:26:15.055Z,89.40
2017-12-01T23:28:43.123Z,89.10
2017-12-01T23:31:11.197Z,88.70
2017-12-01T23:33:39.267Z,88.50
2017-12-01T23:36:07.339Z,87.60
2017-12-01T23:38:35.407Z,87.80
2017-12-01T23:41:03.498Z,87.10
2017-12-01T23:43:32.331Z,88.60
2017-12-01T23:46:00.404Z,88.30
2017-12-01T23:48:28.511Z,88.20
2017-12-01T23:50:56.583Z,87.70
2017-12-01T23:53:24.662Z,88.50
2017-12-01T23:55:52.722Z,89.30
2017-12-01T23:58:20.807Z,89.00
